メインページ
METAR-TAF:

METAR-TAF

空港 :

ムンバイ, インド

チャトラパティ・シヴァージー国際空港

緯度: 19-07N, 経度: 072-51E, 海抜: 8m

現時点の気象観測

当レポートは33分前の19:00(UTC)に作成
北/北東の風 3kt
気温 30°C
湿度 46%
気圧 1012 hPa
視程: 2300m

METAR: VABB 251900Z 03003KT 2300 FU NSC 30/17 Q1012 NOSIG

時間: 01:03 (19:33 UTC)

予報

当レポートは2時間33分前の17:00(UTC)に作成
予報は25日の 18時(UTC)から 26日の 24時(UTC)まで有効
の風 kt
視程: 2500m
26日の 00時(UTC)から 26日の 02時(UTC)まで徐々に
北東の風 4kt
視程: 1500m
煙霧
26日の 04時(UTC)から 26日の 06時(UTC)まで徐々に
東/南東の風 6kt
視程: 3000m
26日の 07時(UTC)から 26日の 09時(UTC)まで徐々に
西の風 8kt
視程: 5000m
26日の 12時(UTC)から 26日の 14時(UTC)まで徐々に
北/北西の風 5kt
視程: 3000m
26日の 15時(UTC)から 26日の 17時(UTC)まで徐々に
の風 4kt
26日の 18時(UTC)から 26日の 20時(UTC)まで徐々に
の風 kt

TAF: VABB 251700Z 2518/2624 00000KT 2500 FU NSC BECMG 2600/2602 05004KT 1500 HZ BECMG 2604/2606 11006KT 3000 FU BECMG 2607/2609 27008KT 5000 FU BECMG 2612/2614 33005KT 3000 FU BECMG 2615/2617 08004KT BECMG 2618/2620 00000KT

4,000以上の空港の気象観測と天気予報(METAR報とTAF報)

利用可能な観測所は地図上に黄色い丸と赤い丸で示す。

丸の上にカーソルを重ねると観測所名を参照できる。

次にクリックすると気象観測と天気予報を参照できる。

マップの切り替え:黒色「×」印の緑ボタンをクリックして拡大、「-」印の緑ボタンをクリックして縮小、緑色の三角印をクリックして隣りの地図に切り替え


METAR-TAF: